Hauptseite
METAR-TAF:

METAR-TAF

Flughäfen :

Harriman-and-West Airport

North Adams, Massachusetts, Vereinigte Staaten

Breite: 42-41-50N, Länge: 073-10-13W, Höhe: 199 m

Beobachtung

Neuester Wetterbericht von vor 16 Minuten, um 09:52 UTC
Wind 4 kt aus Ost/Südost
Temperatur 17°C
Luftfeuchtigkeit 94%
Luftdruck 1023 hPa
Sichtweite: 16.1 km
Himmel klar

METAR: KAQW 270952Z AUTO 12004KT 10SM CLR 17/16 A3020 RMK AO2 SLP225 T01720156

Zeit: 06:08 (10:08 UTC)


TAF: fehlend

Wetterbeobachtungen und Prognosen von mehr als 4000 Flughäfen (METAR und TAF Bericht).

Die verfügbaren Stationen werden durch gelbe und rote Markierungen auf der Karte dargestellt.

Führen Sie die Maus auf sie, um den Namen der Station zu sehen.

Darauf klicken, um die Beobachtung von Wetterbeobachtungen und Prognosen zu sehen.

Um die Karte zu ändern : klicken Sie auf den grünen Tasten mit einem schwarzen Kreuz Zum Vergrößern, auf den grünen Button mit einem Gedankenstrich zu verkleinern, oder auf die grünen Pfeile für benachbarte Karten.


METAR-TAF: